createdAt,value
2018-06-29T00:00:09.175Z,14.60
2018-06-29T00:02:37.884Z,14.60
2018-06-29T00:05:07.777Z,14.50
2018-06-29T00:07:36.438Z,14.50
2018-06-29T00:10:05.812Z,14.40
2018-06-29T00:12:34.506Z,14.40
2018-06-29T00:15:03.278Z,14.30
2018-06-29T00:17:31.957Z,14.40
2018-06-29T00:20:01.253Z,14.40
2018-06-29T00:22:29.925Z,14.40
2018-06-29T00:24:58.659Z,14.30
2018-06-29T00:27:27.318Z,14.30
2018-06-29T00:29:55.996Z,14.20
2018-06-29T00:32:24.654Z,14.20
2018-06-29T00:34:53.347Z,14.20
2018-06-29T00:37:21.983Z,14.20
2018-06-29T00:39:51.895Z,14.20
2018-06-29T00:42:20.526Z,14.10
2018-06-29T00:44:50.584Z,14.10
2018-06-29T00:47:19.256Z,14.00
2018-06-29T00:49:48.109Z,14.00
2018-06-29T00:52:17.568Z,14.00
2018-06-29T00:54:46.231Z,14.00
2018-06-29T00:57:14.895Z,13.90
2018-06-29T00:59:43.537Z,13.90
2018-06-29T01:02:13.082Z,13.90
2018-06-29T01:04:41.735Z,13.80
2018-06-29T01:07:10.454Z,13.80
2018-06-29T01:09:39.101Z,13.80
2018-06-29T01:12:07.771Z,13.80
2018-06-29T01:14:37.240Z,13.70
2018-06-29T01:19:36.113Z,13.70
2018-06-29T01:22:04.843Z,13.60
2018-06-29T01:24:33.635Z,13.60
2018-06-29T01:27:02.317Z,13.50
2018-06-29T01:29:30.939Z,13.50
2018-06-29T01:31:59.620Z,13.50
2018-06-29T01:34:28.433Z,13.50
2018-06-29T01:36:57.114Z,13.40
2018-06-29T01:39:26.999Z,13.50
2018-06-29T01:41:55.633Z,13.40
2018-06-29T01:44:25.228Z,13.50
2018-06-29T01:46:54.080Z,13.40
2018-06-29T01:49:22.734Z,13.50
2018-06-29T01:51:51.323Z,13.50
2018-06-29T01:54:19.938Z,13.50
2018-06-29T01:56:49.204Z,13.40
2018-06-29T01:59:20.624Z,13.50
2018-06-29T02:01:50.173Z,13.50
2018-06-29T02:04:18.792Z,13.50
2018-06-29T02:06:47.506Z,13.60
2018-06-29T02:09:16.201Z,13.50
2018-06-29T02:11:44.852Z,13.60
2018-06-29T02:14:13.507Z,13.50
2018-06-29T02:16:42.151Z,13.60
2018-06-29T02:19:11.701Z,13.80
2018-06-29T02:21:40.453Z,14.20
2018-06-29T02:24:09.138Z,14.70
2018-06-29T02:26:37.804Z,15.40
2018-06-29T02:29:06.479Z,16.00
2018-06-29T02:31:35.148Z,16.60
2018-06-29T02:34:03.799Z,17.20
2018-06-29T02:36:32.412Z,17.80
2018-06-29T02:39:01.073Z,18.50
2018-06-29T02:41:29.772Z,19.00
2018-06-29T02:43:58.435Z,19.30
2018-06-29T02:46:28.060Z,19.40
2018-06-29T02:48:57.813Z,19.00
2018-06-29T02:51:27.734Z,18.90
2018-06-29T02:53:56.437Z,19.00
2018-06-29T02:56:25.222Z,18.80
2018-06-29T02:58:54.781Z,19.00
2018-06-29T03:01:23.504Z,19.30
2018-06-29T03:03:52.255Z,19.70
2018-06-29T03:06:20.923Z,20.20
2018-06-29T03:08:49.561Z,20.90
2018-06-29T03:11:18.205Z,21.40
2018-06-29T03:13:46.864Z,22.00
2018-06-29T03:16:15.558Z,22.50
2018-06-29T03:21:13.404Z,23.10
2018-06-29T03:23:43.177Z,23.30
2018-06-29T03:26:13.677Z,23.60
2018-06-29T03:28:42.438Z,24.10
2018-06-29T03:31:11.095Z,24.50
2018-06-29T03:33:39.783Z,24.40
2018-06-29T03:36:08.421Z,24.70
2018-06-29T03:38:37.200Z,25.10
2018-06-29T03:41:05.916Z,25.40
2018-06-29T03:43:34.621Z,25.70
2018-06-29T03:46:03.309Z,25.20
2018-06-29T03:48:32.064Z,25.40
2018-06-29T03:51:00.755Z,25.10
2018-06-29T03:53:29.467Z,24.80
2018-06-29T03:55:58.118Z,24.80
2018-06-29T03:58:27.717Z,25.00
2018-06-29T04:00:56.418Z,24.60
2018-06-29T04:03:25.118Z,24.30
2018-06-29T04:05:53.851Z,24.20
2018-06-29T04:08:22.603Z,24.20
2018-06-29T04:10:51.252Z,24.10
2018-06-29T04:13:19.934Z,23.00
2018-06-29T04:15:49.364Z,22.90
2018-06-29T04:20:47.126Z,23.80
2018-06-29T04:23:15.883Z,23.30
2018-06-29T04:25:44.729Z,23.30
2018-06-29T04:28:13.366Z,23.50
2018-06-29T04:30:42.088Z,23.70
2018-06-29T04:33:10.868Z,23.90
2018-06-29T04:35:39.513Z,23.80
2018-06-29T04:38:09.605Z,23.50
2018-06-29T04:40:38.260Z,23.50
2018-06-29T04:43:07.816Z,23.60
2018-06-29T04:45:36.574Z,23.70
2018-06-29T04:48:05.497Z,23.80
2018-06-29T04:50:34.194Z,23.70
2018-06-29T04:53:02.833Z,23.60
2018-06-29T04:55:31.486Z,23.60
2018-06-29T04:58:00.147Z,23.20
2018-06-29T05:00:28.938Z,23.40
2018-06-29T05:02:57.717Z,23.10
2018-06-29T05:05:26.891Z,23.70
2018-06-29T05:07:55.604Z,23.90
2018-06-29T05:10:25.485Z,23.40
2018-06-29T05:12:54.130Z,23.00
2018-06-29T05:15:24.001Z,23.10
2018-06-29T05:17:52.808Z,23.40
2018-06-29T05:20:21.460Z,23.30
2018-06-29T05:22:50.185Z,23.50
2018-06-29T05:25:18.898Z,24.00
2018-06-29T05:27:47.542Z,24.30
2018-06-29T05:30:16.209Z,24.40
2018-06-29T05:32:44.851Z,24.10
2018-06-29T05:35:13.632Z,24.10
2018-06-29T05:37:42.326Z,22.90
2018-06-29T05:40:12.064Z,22.90
2018-06-29T05:42:40.798Z,22.90
2018-06-29T05:45:11.499Z,22.30
2018-06-29T05:47:40.188Z,21.90
2018-06-29T05:50:08.787Z,22.00
2018-06-29T05:52:37.504Z,22.00
2018-06-29T05:55:07.564Z,21.80
2018-06-29T05:57:36.377Z,21.70
2018-06-29T06:00:06.150Z,21.30
2018-06-29T06:02:34.942Z,20.80
2018-06-29T06:05:03.738Z,20.50
2018-06-29T06:07:32.397Z,20.20
2018-06-29T06:10:01.062Z,19.90
2018-06-29T06:12:29.721Z,19.40
2018-06-29T06:14:58.496Z,19.40
2018-06-29T06:17:28.202Z,19.30
2018-06-29T06:20:10.855Z,19.40
2018-06-29T06:22:39.547Z,19.30
2018-06-29T06:25:08.352Z,19.00
2018-06-29T06:27:37.139Z,19.00
2018-06-29T06:30:06.015Z,19.00
2018-06-29T06:32:34.738Z,19.10
2018-06-29T06:36:33.808Z,19.00
2018-06-29T06:39:03.541Z,18.80
2018-06-29T06:41:32.246Z,18.60
2018-06-29T06:46:30.554Z,18.60
2018-06-29T06:49:00.049Z,18.50
2018-06-29T06:51:29.854Z,18.50
2018-06-29T06:53:58.594Z,18.50
2018-06-29T06:56:27.303Z,18.50
2018-06-29T06:58:55.955Z,18.60
2018-06-29T07:01:24.606Z,18.60
2018-06-29T07:03:54.607Z,18.60
2018-06-29T07:06:24.534Z,18.60
2018-06-29T07:08:53.175Z,18.60
2018-06-29T07:11:23.161Z,18.30
2018-06-29T07:13:52.667Z,18.50
2018-06-29T07:16:22.125Z,18.70
2018-06-29T07:18:50.793Z,18.60
2018-06-29T07:21:19.601Z,18.50
2018-06-29T07:23:48.259Z,18.30
2018-06-29T07:26:17.786Z,18.20
2018-06-29T07:28:46.514Z,18.20
2018-06-29T07:31:15.894Z,18.30
2018-06-29T07:33:44.539Z,18.10
2018-06-29T07:36:13.371Z,18.10
2018-06-29T07:38:42.155Z,17.90
2018-06-29T07:41:11.709Z,18.00
2018-06-29T07:43:40.396Z,18.30
2018-06-29T07:46:09.669Z,18.20
2018-06-29T07:48:39.673Z,18.30
2018-06-29T07:51:08.306Z,18.20
2018-06-29T07:53:38.195Z,18.00
2018-06-29T07:56:07.040Z,17.90
2018-06-29T07:58:35.752Z,18.00
2018-06-29T08:01:05.026Z,18.20
2018-06-29T08:03:35.660Z,18.40
2018-06-29T08:06:05.569Z,18.60
2018-06-29T08:08:35.609Z,18.80
2018-06-29T08:11:05.547Z,18.80
2018-06-29T08:13:34.299Z,18.90
2018-06-29T08:16:03.107Z,19.10
2018-06-29T08:18:32.377Z,19.00
2018-06-29T08:21:01.010Z,18.90
2018-06-29T08:23:33.920Z,18.80
2018-06-29T08:26:14.254Z,18.80
2018-06-29T08:28:43.040Z,19.00
2018-06-29T08:31:11.985Z,18.90
2018-06-29T08:33:41.557Z,18.70
2018-06-29T08:36:10.249Z,18.40
2018-06-29T08:38:39.943Z,18.30
2018-06-29T08:41:08.781Z,18.20
2018-06-29T08:43:37.429Z,18.30
2018-06-29T08:46:06.146Z,18.20
2018-06-29T08:48:34.949Z,18.20
2018-06-29T08:51:05.030Z,18.10
2018-06-29T08:53:33.692Z,18.30
2018-06-29T08:56:02.396Z,18.50
2018-06-29T08:58:31.875Z,18.50
2018-06-29T09:01:01.390Z,18.50
2018-06-29T09:03:30.823Z,18.60
2018-06-29T09:06:00.400Z,18.90
2018-06-29T09:08:29.022Z,19.20
2018-06-29T09:10:57.695Z,19.40
2018-06-29T09:13:26.417Z,19.40
2018-06-29T09:15:55.120Z,19.30
2018-06-29T09:18:23.821Z,19.30
2018-06-29T09:20:54.008Z,19.40
2018-06-29T09:23:24.032Z,19.60
2018-06-29T09:25:53.590Z,19.60
2018-06-29T09:28:23.342Z,19.70
2018-06-29T09:30:53.246Z,19.70
2018-06-29T09:33:21.872Z,19.70
2018-06-29T09:35:50.533Z,19.60
2018-06-29T09:38:20.096Z,19.50
2018-06-29T09:40:48.709Z,19.50
2018-06-29T09:43:18.216Z,19.50
2018-06-29T09:45:47.031Z,19.50
2018-06-29T09:48:15.722Z,19.30
2018-06-29T09:50:45.736Z,19.30
2018-06-29T09:53:14.364Z,19.30
2018-06-29T09:55:42.971Z,19.40
2018-06-29T09:58:11.672Z,19.20
2018-06-29T10:00:40.355Z,19.30
2018-06-29T10:03:08.988Z,19.70
2018-06-29T10:05:38.698Z,19.50
2018-06-29T10:08:08.156Z,19.80
2018-06-29T10:10:37.654Z,20.00
2018-06-29T10:13:06.299Z,19.70
2018-06-29T10:15:36.284Z,19.70
2018-06-29T10:18:05.109Z,19.70
2018-06-29T10:20:33.820Z,19.70
2018-06-29T10:23:02.455Z,19.80
2018-06-29T10:25:31.235Z,19.90
2018-06-29T10:27:59.916Z,20.00
2018-06-29T10:30:28.556Z,19.90
2018-06-29T10:32:58.270Z,19.90
2018-06-29T10:35:26.917Z,19.90
2018-06-29T10:37:56.524Z,19.90
2018-06-29T10:40:25.161Z,20.10
2018-06-29T10:42:53.772Z,20.20
2018-06-29T10:45:22.454Z,20.10
2018-06-29T10:50:20.797Z,19.90
2018-06-29T10:52:49.456Z,20.00
2018-06-29T10:55:18.248Z,20.10
2018-06-29T10:57:46.921Z,20.30
2018-06-29T11:00:16.368Z,20.30
2018-06-29T11:02:44.970Z,20.10
2018-06-29T11:05:13.608Z,20.20
2018-06-29T11:07:43.258Z,20.20
2018-06-29T11:10:11.980Z,20.10
2018-06-29T11:12:40.605Z,20.00
2018-06-29T11:15:10.787Z,20.00
2018-06-29T11:17:39.594Z,19.90
2018-06-29T11:20:08.976Z,20.00
2018-06-29T11:25:07.292Z,20.10
2018-06-29T11:27:36.019Z,20.30
2018-06-29T11:30:04.925Z,20.50
2018-06-29T11:32:33.563Z,20.20
2018-06-29T11:35:02.261Z,20.00
2018-06-29T11:37:31.926Z,20.10
2018-06-29T11:40:00.744Z,20.20
2018-06-29T11:42:29.340Z,20.30
2018-06-29T11:44:59.332Z,20.40
2018-06-29T11:47:28.031Z,20.50
2018-06-29T11:49:56.797Z,20.50
2018-06-29T11:52:26.133Z,20.40
2018-06-29T11:54:54.778Z,20.40
2018-06-29T11:57:23.509Z,20.70
2018-06-29T11:59:52.139Z,20.90
2018-06-29T12:02:22.074Z,20.90
2018-06-29T12:04:50.741Z,20.90
2018-06-29T12:07:19.526Z,21.00
2018-06-29T12:09:48.177Z,21.20
2018-06-29T12:12:16.938Z,21.20
2018-06-29T12:14:45.607Z,21.20
2018-06-29T12:17:15.150Z,21.20
2018-06-29T12:19:43.802Z,20.90
2018-06-29T12:22:12.425Z,20.80
2018-06-29T12:24:41.885Z,20.70
2018-06-29T12:27:11.446Z,20.70
2018-06-29T12:29:41.308Z,20.70
2018-06-29T12:32:10.000Z,20.90
2018-06-29T12:34:38.628Z,21.10
2018-06-29T12:37:07.272Z,21.00
2018-06-29T12:39:37.264Z,20.90
2018-06-29T12:42:07.316Z,21.00
2018-06-29T12:44:36.084Z,20.90
2018-06-29T12:47:04.986Z,21.00
2018-06-29T12:49:34.915Z,21.20
2018-06-29T12:52:03.577Z,21.20
2018-06-29T12:54:32.252Z,21.40
2018-06-29T12:57:02.003Z,21.50
2018-06-29T12:59:31.660Z,21.70
2018-06-29T13:02:00.302Z,21.90
2018-06-29T13:04:28.931Z,21.90
2018-06-29T13:06:57.566Z,21.60
2018-06-29T13:09:27.501Z,21.50
2018-06-29T13:11:57.385Z,21.40
2018-06-29T13:14:27.159Z,21.20
2018-06-29T13:16:55.795Z,21.30
2018-06-29T13:19:24.460Z,21.30
2018-06-29T13:21:53.180Z,21.20
2018-06-29T13:24:22.591Z,20.90
2018-06-29T13:26:52.157Z,20.80
2018-06-29T13:29:21.797Z,20.70
2018-06-29T13:31:50.575Z,20.70
2018-06-29T13:34:19.268Z,20.80
2018-06-29T13:36:48.056Z,21.00
2018-06-29T13:39:16.839Z,20.70
2018-06-29T13:41:46.355Z,20.60
2018-06-29T13:44:15.807Z,20.60
2018-06-29T13:46:44.501Z,20.50
2018-06-29T13:49:13.183Z,20.40
2018-06-29T13:51:41.848Z,20.40
2018-06-29T13:54:10.493Z,20.40
2018-06-29T13:56:39.192Z,20.40
2018-06-29T13:59:07.959Z,20.50
2018-06-29T14:01:36.657Z,20.70
2018-06-29T14:04:06.330Z,20.70
2018-06-29T14:06:34.998Z,20.90
2018-06-29T14:09:05.611Z,21.20
2018-06-29T14:11:34.280Z,21.30
2018-06-29T14:14:03.040Z,21.40
2018-06-29T14:16:31.749Z,21.40
2018-06-29T14:19:00.553Z,21.60
2018-06-29T14:21:29.826Z,21.60
2018-06-29T14:23:58.447Z,21.40
2018-06-29T14:26:28.439Z,21.00
2018-06-29T14:28:58.038Z,20.70
2018-06-29T14:31:26.726Z,20.40
2018-06-29T14:33:56.566Z,20.30
2018-06-29T14:36:26.449Z,20.60
2018-06-29T14:38:57.318Z,20.80
2018-06-29T14:41:27.073Z,20.70
2018-06-29T14:43:55.770Z,20.70
2018-06-29T14:46:25.675Z,20.70
2018-06-29T14:48:55.580Z,20.80
2018-06-29T14:51:24.637Z,20.80
2018-06-29T14:53:53.306Z,20.70
2018-06-29T14:56:21.944Z,20.60
2018-06-29T14:58:50.648Z,20.70
2018-06-29T15:01:19.310Z,20.70
2018-06-29T15:03:47.944Z,20.80
2018-06-29T15:06:16.885Z,20.80
2018-06-29T15:08:46.307Z,20.60
2018-06-29T15:11:15.802Z,20.60
2018-06-29T15:13:44.437Z,20.50
2018-06-29T15:16:13.153Z,20.60
2018-06-29T15:18:42.129Z,20.70
2018-06-29T15:21:10.776Z,20.70
2018-06-29T15:23:39.607Z,20.70
2018-06-29T15:26:08.479Z,20.80
2018-06-29T15:28:37.121Z,20.80
2018-06-29T15:31:05.866Z,20.70
2018-06-29T15:33:34.550Z,20.50
2018-06-29T15:36:03.272Z,20.40
2018-06-29T15:38:32.948Z,20.40
2018-06-29T15:41:01.608Z,20.20
2018-06-29T15:43:31.151Z,20.00
2018-06-29T15:46:00.211Z,19.90
2018-06-29T15:48:28.843Z,19.90
2018-06-29T15:53:26.769Z,19.70
2018-06-29T15:55:55.435Z,19.80
2018-06-29T15:58:24.083Z,19.90
2018-06-29T16:00:53.721Z,20.10
2018-06-29T16:03:23.314Z,20.20
2018-06-29T16:05:51.983Z,20.20
2018-06-29T16:08:20.660Z,20.40
2018-06-29T16:10:50.407Z,20.60
2018-06-29T16:13:19.054Z,20.50
2018-06-29T16:15:47.799Z,20.50
2018-06-29T16:18:17.499Z,20.40
2018-06-29T16:20:46.199Z,20.30
2018-06-29T16:23:14.859Z,20.30
2018-06-29T16:25:43.518Z,20.40
2018-06-29T16:28:12.814Z,20.50
2018-06-29T16:30:41.450Z,20.40
2018-06-29T16:33:10.270Z,20.30
2018-06-29T16:35:39.718Z,20.00
2018-06-29T16:38:09.310Z,20.00
2018-06-29T16:40:39.130Z,19.90
2018-06-29T16:43:07.819Z,20.00
2018-06-29T16:45:36.605Z,20.10
2018-06-29T16:48:06.061Z,20.40
2018-06-29T16:50:35.523Z,20.60
2018-06-29T16:53:05.030Z,20.60
2018-06-29T16:55:33.810Z,20.50
2018-06-29T16:58:02.463Z,20.40
2018-06-29T17:00:31.282Z,20.10
2018-06-29T17:03:00.553Z,19.90
2018-06-29T17:05:29.336Z,19.80
2018-06-29T17:07:58.024Z,19.70
2018-06-29T17:10:27.578Z,19.60
2018-06-29T17:12:57.284Z,19.50
2018-06-29T17:15:26.084Z,19.50
2018-06-29T17:17:55.978Z,19.60
2018-06-29T17:20:25.917Z,19.60
2018-06-29T17:22:54.666Z,19.60
2018-06-29T17:25:24.065Z,19.60
2018-06-29T17:27:52.721Z,19.60
2018-06-29T17:30:21.372Z,19.60
2018-06-29T17:32:50.172Z,19.70
2018-06-29T17:35:18.879Z,19.50
2018-06-29T17:37:47.519Z,19.40
2018-06-29T17:41:45.541Z,19.30
2018-06-29T17:44:14.298Z,19.20
2018-06-29T17:46:42.949Z,19.50
2018-06-29T17:49:11.732Z,20.00
2018-06-29T17:51:40.364Z,20.20
2018-06-29T17:54:09.047Z,20.50
2018-06-29T17:56:37.716Z,20.40
2018-06-29T17:59:06.435Z,20.20
2018-06-29T18:01:35.136Z,20.20
2018-06-29T18:04:04.507Z,20.10
2018-06-29T18:09:03.545Z,19.90
2018-06-29T18:11:32.196Z,19.90
2018-06-29T18:14:00.836Z,19.70
2018-06-29T18:16:30.346Z,19.60
2018-06-29T18:19:00.153Z,19.40
2018-06-29T18:21:28.810Z,19.30
2018-06-29T18:23:57.439Z,19.20
2018-06-29T18:26:26.217Z,19.20
2018-06-29T18:28:54.913Z,19.10
2018-06-29T18:31:23.842Z,19.10
2018-06-29T18:33:52.423Z,19.00
2018-06-29T18:36:21.138Z,18.80
2018-06-29T18:38:49.826Z,18.80
2018-06-29T18:41:18.552Z,18.70
2018-06-29T18:43:47.264Z,18.80
2018-06-29T18:46:15.954Z,18.90
2018-06-29T18:48:44.631Z,19.00
2018-06-29T18:51:13.305Z,19.10
2018-06-29T18:53:43.159Z,19.10
2018-06-29T18:56:11.867Z,19.10
2018-06-29T18:58:40.608Z,19.10
2018-06-29T19:01:10.424Z,19.00
2018-06-29T19:03:40.311Z,19.00
2018-06-29T19:06:08.956Z,19.00
2018-06-29T19:08:39.078Z,18.80
2018-06-29T19:11:08.846Z,18.70
2018-06-29T19:13:37.500Z,18.60
2018-06-29T19:16:07.447Z,18.50
2018-06-29T19:18:36.222Z,18.50
2018-06-29T19:21:04.827Z,18.60
2018-06-29T19:23:34.715Z,18.40
2018-06-29T19:26:03.412Z,18.30
2018-06-29T19:28:32.216Z,18.20
2018-06-29T19:31:00.858Z,18.10
2018-06-29T19:33:29.536Z,18.10
2018-06-29T19:35:58.225Z,18.00
2018-06-29T19:38:26.975Z,18.00
2018-06-29T19:40:55.756Z,18.00
2018-06-29T19:43:24.436Z,17.90
2018-06-29T19:45:53.714Z,17.90
2018-06-29T19:48:23.219Z,17.90
2018-06-29T19:53:21.812Z,17.70
2018-06-29T19:55:50.465Z,17.70
2018-06-29T19:58:19.208Z,17.70
2018-06-29T20:00:47.967Z,17.60
2018-06-29T20:03:16.644Z,17.60
2018-06-29T20:05:45.421Z,17.60
2018-06-29T20:08:14.072Z,17.50
2018-06-29T20:10:43.683Z,17.60
2018-06-29T20:13:12.342Z,17.60
2018-06-29T20:15:41.051Z,17.50
2018-06-29T20:18:09.716Z,17.30
2018-06-29T20:20:38.393Z,17.30
2018-06-29T20:23:07.085Z,17.20
2018-06-29T20:25:35.753Z,17.10
2018-06-29T20:28:04.624Z,17.00
2018-06-29T20:30:33.340Z,16.90
2018-06-29T20:33:02.201Z,16.90
2018-06-29T20:35:31.500Z,16.80
2018-06-29T20:38:00.123Z,16.70
2018-06-29T20:40:28.795Z,16.70
2018-06-29T20:42:57.430Z,16.60
2018-06-29T20:45:26.074Z,16.50
2018-06-29T20:47:55.821Z,16.50
2018-06-29T20:50:24.523Z,16.40
2018-06-29T20:52:54.220Z,16.30
2018-06-29T20:55:22.925Z,16.20
2018-06-29T20:57:52.584Z,16.20
2018-06-29T21:00:22.544Z,16.00
2018-06-29T21:02:51.261Z,16.00
2018-06-29T21:05:19.920Z,15.90
2018-06-29T21:07:48.579Z,15.70
2018-06-29T21:10:17.223Z,15.70
2018-06-29T21:12:45.884Z,15.60
2018-06-29T21:15:15.842Z,15.50
2018-06-29T21:17:44.765Z,15.40
2018-06-29T21:20:13.455Z,15.30
2018-06-29T21:22:42.334Z,15.20
2018-06-29T21:25:11.149Z,15.00
2018-06-29T21:27:40.503Z,14.90
2018-06-29T21:30:09.149Z,14.90
2018-06-29T21:32:37.836Z,14.80
2018-06-29T21:35:06.785Z,14.70
2018-06-29T21:37:35.458Z,14.60
2018-06-29T21:40:04.311Z,14.50
2018-06-29T21:42:33.841Z,14.50
2018-06-29T21:45:02.636Z,14.40
2018-06-29T21:47:31.312Z,14.40
2018-06-29T21:49:59.971Z,14.30
2018-06-29T21:52:28.663Z,14.20
2018-06-29T21:54:58.095Z,14.10
2018-06-29T21:57:28.019Z,14.10
2018-06-29T21:59:58.053Z,14.00
2018-06-29T22:02:26.864Z,13.90
2018-06-29T22:04:56.859Z,13.90
2018-06-29T22:07:25.513Z,13.80
2018-06-29T22:09:54.254Z,13.70
2018-06-29T22:12:22.938Z,13.60
2018-06-29T22:14:51.794Z,13.50
2018-06-29T22:17:20.474Z,13.40
2018-06-29T22:19:50.340Z,13.40
2018-06-29T22:22:18.989Z,13.30
2018-06-29T22:24:47.644Z,13.20
2018-06-29T22:27:16.471Z,13.10
2018-06-29T22:29:45.139Z,13.00
2018-06-29T22:32:14.921Z,13.00
2018-06-29T22:34:44.888Z,12.90
2018-06-29T22:37:14.571Z,12.90
2018-06-29T22:39:44.288Z,12.80
2018-06-29T22:42:14.022Z,12.70
2018-06-29T22:44:43.922Z,12.70
2018-06-29T22:47:13.881Z,12.60
2018-06-29T22:49:43.753Z,12.50
2018-06-29T22:52:13.670Z,12.50
2018-06-29T22:54:43.349Z,12.40
2018-06-29T22:57:13.171Z,12.30
2018-06-29T22:59:43.187Z,12.30
2018-06-29T23:02:12.957Z,12.20
2018-06-29T23:04:42.950Z,12.10
2018-06-29T23:07:12.473Z,12.10
2018-06-29T23:09:41.987Z,12.00
2018-06-29T23:12:11.622Z,12.00
2018-06-29T23:14:41.083Z,11.90
2018-06-29T23:17:10.503Z,11.80
2018-06-29T23:19:40.459Z,11.70
2018-06-29T23:22:10.351Z,11.70
2018-06-29T23:24:40.255Z,11.60
2018-06-29T23:27:10.319Z,11.60
2018-06-29T23:29:40.146Z,11.50
2018-06-29T23:32:10.043Z,11.40
2018-06-29T23:34:39.766Z,11.40
2018-06-29T23:39:38.995Z,11.20
2018-06-29T23:42:08.903Z,11.10
2018-06-29T23:44:38.612Z,11.10
2018-06-29T23:47:08.644Z,11.00
2018-06-29T23:49:38.199Z,10.80
2018-06-29T23:52:07.257Z,10.70
2018-06-29T23:54:37.249Z,10.60
2018-06-29T23:57:07.153Z,10.40
2018-06-29T23:59:36.512Z,10.40
